sensor_id;sensor_type;location;lat;lon;timestamp;temperature;humidity
20416;DHT22;10367;52.202;5.996;2024-03-08T00:01:18;2.50;99.90
20416;DHT22;10367;52.202;5.996;2024-03-08T00:03:49;2.50;99.90
20416;DHT22;10367;52.202;5.996;2024-03-08T00:06:19;2.50;99.90
20416;DHT22;10367;52.202;5.996;2024-03-08T00:08:48;2.40;99.90
20416;DHT22;10367;52.202;5.996;2024-03-08T00:11:18;2.40;99.90
20416;DHT22;10367;52.202;5.996;2024-03-08T00:13:48;2.40;99.90
20416;DHT22;10367;52.202;5.996;2024-03-08T00:16:16;2.40;99.90
20416;DHT22;10367;52.202;5.996;2024-03-08T00:18:46;2.40;99.90
20416;DHT22;10367;52.202;5.996;2024-03-08T00:21:18;2.30;99.90
20416;DHT22;10367;52.202;5.996;2024-03-08T00:23:47;2.30;99.90
20416;DHT22;10367;52.202;5.996;2024-03-08T00:26:16;2.30;99.90
20416;DHT22;10367;52.202;5.996;2024-03-08T00:28:44;2.20;99.90
20416;DHT22;10367;52.202;5.996;2024-03-08T00:31:14;2.20;99.90
20416;DHT22;10367;52.202;5.996;2024-03-08T00:33:44;2.20;99.90
20416;DHT22;10367;52.202;5.996;2024-03-08T00:36:13;2.20;99.90
20416;DHT22;10367;52.202;5.996;2024-03-08T00:38:43;2.10;99.90
20416;DHT22;10367;52.202;5.996;2024-03-08T00:41:13;2.10;99.90
20416;DHT22;10367;52.202;5.996;2024-03-08T00:43:42;2.10;99.90
20416;DHT22;10367;52.202;5.996;2024-03-08T00:46:11;2.10;99.90
20416;DHT22;10367;52.202;5.996;2024-03-08T00:48:40;2.10;99.90
20416;DHT22;10367;52.202;5.996;2024-03-08T00:51:11;2.00;99.90
20416;DHT22;10367;52.202;5.996;2024-03-08T00:53:40;2.00;99.90
20416;DHT22;10367;52.202;5.996;2024-03-08T00:56:10;2.00;99.90
20416;DHT22;10367;52.202;5.996;2024-03-08T00:58:39;1.90;99.90
20416;DHT22;10367;52.202;5.996;2024-03-08T01:01:08;1.90;99.90
20416;DHT22;10367;52.202;5.996;2024-03-08T01:03:37;2.00;99.90
20416;DHT22;10367;52.202;5.996;2024-03-08T01:06:06;1.90;99.90
20416;DHT22;10367;52.202;5.996;2024-03-08T01:08:35;1.90;99.90
20416;DHT22;10367;52.202;5.996;2024-03-08T01:11:05;1.90;99.90
20416;DHT22;10367;52.202;5.996;2024-03-08T01:13:36;1.80;99.90
20416;DHT22;10367;52.202;5.996;2024-03-08T01:16:05;1.80;99.90
20416;DHT22;10367;52.202;5.996;2024-03-08T01:18:34;1.80;99.90
20416;DHT22;10367;52.202;5.996;2024-03-08T01:21:04;1.80;99.90
20416;DHT22;10367;52.202;5.996;2024-03-08T01:23:33;1.70;99.90
20416;DHT22;10367;52.202;5.996;2024-03-08T01:26:03;1.70;99.90
20416;DHT22;10367;52.202;5.996;2024-03-08T01:28:31;1.70;99.90
20416;DHT22;10367;52.202;5.996;2024-03-08T01:31:03;1.70;99.90
20416;DHT22;10367;52.202;5.996;2024-03-08T01:33:33;1.70;99.90
20416;DHT22;10367;52.202;5.996;2024-03-08T01:36:02;1.70;99.90
20416;DHT22;10367;52.202;5.996;2024-03-08T01:38:31;1.60;99.90
20416;DHT22;10367;52.202;5.996;2024-03-08T01:41:01;1.60;99.90
20416;DHT22;10367;52.202;5.996;2024-03-08T01:43:29;1.60;99.90
20416;DHT22;10367;52.202;5.996;2024-03-08T01:45:58;1.50;99.90
20416;DHT22;10367;52.202;5.996;2024-03-08T01:48:29;1.50;99.90
20416;DHT22;10367;52.202;5.996;2024-03-08T01:50:58;1.50;99.90
20416;DHT22;10367;52.202;5.996;2024-03-08T01:53:29;1.40;99.90
20416;DHT22;10367;52.202;5.996;2024-03-08T01:55:59;1.40;99.90
20416;DHT22;10367;52.202;5.996;2024-03-08T01:58:29;1.40;99.90
20416;DHT22;10367;52.202;5.996;2024-03-08T02:00:58;1.30;99.90
20416;DHT22;10367;52.202;5.996;2024-03-08T02:03:29;1.30;99.90
20416;DHT22;10367;52.202;5.996;2024-03-08T02:05:59;1.30;99.90
20416;DHT22;10367;52.202;5.996;2024-03-08T02:08:28;1.30;99.90
20416;DHT22;10367;52.202;5.996;2024-03-08T02:10:57;1.30;99.90
20416;DHT22;10367;52.202;5.996;2024-03-08T02:13:27;1.20;99.90
20416;DHT22;10367;52.202;5.996;2024-03-08T02:15:57;1.20;99.90
20416;DHT22;10367;52.202;5.996;2024-03-08T02:18:29;1.20;99.90
20416;DHT22;10367;52.202;5.996;2024-03-08T02:21:01;1.20;99.90
20416;DHT22;10367;52.202;5.996;2024-03-08T02:23:32;1.20;99.90
20416;DHT22;10367;52.202;5.996;2024-03-08T02:26:01;1.20;99.90
20416;DHT22;10367;52.202;5.996;2024-03-08T02:28:32;1.20;99.90
20416;DHT22;10367;52.202;5.996;2024-03-08T02:31:01;1.20;99.90
20416;DHT22;10367;52.202;5.996;2024-03-08T02:33:35;1.10;99.90
20416;DHT22;10367;52.202;5.996;2024-03-08T02:36:06;1.10;99.90
20416;DHT22;10367;52.202;5.996;2024-03-08T02:38:35;1.10;99.90
20416;DHT22;10367;52.202;5.996;2024-03-08T02:41:07;1.10;99.90
20416;DHT22;10367;52.202;5.996;2024-03-08T02:43:36;1.00;99.90
20416;DHT22;10367;52.202;5.996;2024-03-08T02:46:05;1.00;99.90
20416;DHT22;10367;52.202;5.996;2024-03-08T02:48:34;1.00;99.90
20416;DHT22;10367;52.202;5.996;2024-03-08T02:51:05;0.90;99.90
20416;DHT22;10367;52.202;5.996;2024-03-08T02:53:34;0.90;99.90
20416;DHT22;10367;52.202;5.996;2024-03-08T02:56:03;0.80;99.90
20416;DHT22;10367;52.202;5.996;2024-03-08T02:58:32;0.80;99.90
20416;DHT22;10367;52.202;5.996;2024-03-08T03:01:00;0.80;99.90
20416;DHT22;10367;52.202;5.996;2024-03-08T03:03:29;0.80;99.90
20416;DHT22;10367;52.202;5.996;2024-03-08T03:05:58;0.80;99.90
20416;DHT22;10367;52.202;5.996;2024-03-08T03:08:29;0.70;99.90
20416;DHT22;10367;52.202;5.996;2024-03-08T03:10:58;0.70;99.90
20416;DHT22;10367;52.202;5.996;2024-03-08T03:13:27;0.60;99.90
20416;DHT22;10367;52.202;5.996;2024-03-08T03:15:57;0.60;99.90
20416;DHT22;10367;52.202;5.996;2024-03-08T03:18:26;0.50;99.90
20416;DHT22;10367;52.202;5.996;2024-03-08T03:20:55;0.50;99.90
20416;DHT22;10367;52.202;5.996;2024-03-08T03:23:24;0.50;99.90
20416;DHT22;10367;52.202;5.996;2024-03-08T03:25:55;0.50;99.90
20416;DHT22;10367;52.202;5.996;2024-03-08T03:28:25;0.40;99.90
20416;DHT22;10367;52.202;5.996;2024-03-08T03:30:55;0.40;99.90
20416;DHT22;10367;52.202;5.996;2024-03-08T03:33:26;0.40;99.90
20416;DHT22;10367;52.202;5.996;2024-03-08T03:35:55;0.30;99.90
20416;DHT22;10367;52.202;5.996;2024-03-08T03:38:24;0.30;99.90
20416;DHT22;10367;52.202;5.996;2024-03-08T03:40:56;0.30;99.90
20416;DHT22;10367;52.202;5.996;2024-03-08T03:43:31;0.30;99.90
20416;DHT22;10367;52.202;5.996;2024-03-08T03:46:00;0.20;99.90
20416;DHT22;10367;52.202;5.996;2024-03-08T03:48:29;0.20;99.90
20416;DHT22;10367;52.202;5.996;2024-03-08T03:50:59;0.20;99.90
20416;DHT22;10367;52.202;5.996;2024-03-08T03:53:28;0.20;99.90
20416;DHT22;10367;52.202;5.996;2024-03-08T03:55:58;0.20;99.90
20416;DHT22;10367;52.202;5.996;2024-03-08T03:58:27;0.10;99.90
20416;DHT22;10367;52.202;5.996;2024-03-08T04:00:56;0.10;99.90
20416;DHT22;10367;52.202;5.996;2024-03-08T04:03:25;0.10;99.90
20416;DHT22;10367;52.202;5.996;2024-03-08T04:05:54;0.20;99.90
20416;DHT22;10367;52.202;5.996;2024-03-08T04:08:23;0.20;99.90
20416;DHT22;10367;52.202;5.996;2024-03-08T04:10:52;0.30;99.90
20416;DHT22;10367;52.202;5.996;2024-03-08T04:13:22;0.30;99.90
20416;DHT22;10367;52.202;5.996;2024-03-08T04:15:51;0.40;99.90
20416;DHT22;10367;52.202;5.996;2024-03-08T04:18:20;0.40;99.90
20416;DHT22;10367;52.202;5.996;2024-03-08T04:20:48;0.40;99.90
20416;DHT22;10367;52.202;5.996;2024-03-08T04:23:17;0.40;99.90
20416;DHT22;10367;52.202;5.996;2024-03-08T04:25:46;0.40;99.90
20416;DHT22;10367;52.202;5.996;2024-03-08T04:28:15;0.40;99.90
20416;DHT22;10367;52.202;5.996;2024-03-08T04:30:45;0.50;99.90
20416;DHT22;10367;52.202;5.996;2024-03-08T04:33:14;0.50;99.90
20416;DHT22;10367;52.202;5.996;2024-03-08T04:35:46;0.50;99.90
20416;DHT22;10367;52.202;5.996;2024-03-08T04:38:15;0.40;99.90
20416;DHT22;10367;52.202;5.996;2024-03-08T04:40:44;0.40;99.90
20416;DHT22;10367;52.202;5.996;2024-03-08T04:43:13;0.30;99.90
20416;DHT22;10367;52.202;5.996;2024-03-08T04:45:42;0.30;99.90
20416;DHT22;10367;52.202;5.996;2024-03-08T04:48:12;0.20;99.90
20416;DHT22;10367;52.202;5.996;2024-03-08T04:50:41;0.20;99.90
20416;DHT22;10367;52.202;5.996;2024-03-08T04:53:12;0.20;99.90
20416;DHT22;10367;52.202;5.996;2024-03-08T04:55:41;0.20;99.90
20416;DHT22;10367;52.202;5.996;2024-03-08T04:58:10;0.30;99.90
20416;DHT22;10367;52.202;5.996;2024-03-08T05:00:38;0.30;99.90
20416;DHT22;10367;52.202;5.996;2024-03-08T05:03:07;0.20;99.90
20416;DHT22;10367;52.202;5.996;2024-03-08T05:05:37;0.10;99.90
20416;DHT22;10367;52.202;5.996;2024-03-08T05:08:06;0.00;99.90
20416;DHT22;10367;52.202;5.996;2024-03-08T05:10:35;0.00;99.90
20416;DHT22;10367;52.202;5.996;2024-03-08T05:13:04;0.00;99.90
20416;DHT22;10367;52.202;5.996;2024-03-08T05:15:33;0.00;99.90
20416;DHT22;10367;52.202;5.996;2024-03-08T05:18:02;0.00;99.90
20416;DHT22;10367;52.202;5.996;2024-03-08T05:20:32;0.10;99.90
20416;DHT22;10367;52.202;5.996;2024-03-08T05:23:02;0.10;99.90
20416;DHT22;10367;52.202;5.996;2024-03-08T05:25:31;0.20;99.90
20416;DHT22;10367;52.202;5.996;2024-03-08T05:28:00;0.30;99.90
20416;DHT22;10367;52.202;5.996;2024-03-08T05:30:31;0.30;99.90
20416;DHT22;10367;52.202;5.996;2024-03-08T05:33:00;0.30;99.90
20416;DHT22;10367;52.202;5.996;2024-03-08T05:35:29;0.30;99.90
20416;DHT22;10367;52.202;5.996;2024-03-08T05:37:58;0.30;99.90
20416;DHT22;10367;52.202;5.996;2024-03-08T05:40:28;0.30;99.90
20416;DHT22;10367;52.202;5.996;2024-03-08T05:42:59;0.30;99.90
20416;DHT22;10367;52.202;5.996;2024-03-08T05:45:28;0.30;99.90
20416;DHT22;10367;52.202;5.996;2024-03-08T05:47:57;0.30;99.90
20416;DHT22;10367;52.202;5.996;2024-03-08T05:50:26;0.30;99.90
20416;DHT22;10367;52.202;5.996;2024-03-08T05:52:55;0.30;99.90
20416;DHT22;10367;52.202;5.996;2024-03-08T05:55:24;0.30;99.90
20416;DHT22;10367;52.202;5.996;2024-03-08T05:57:55;0.30;99.90
20416;DHT22;10367;52.202;5.996;2024-03-08T06:00:24;0.30;99.90
20416;DHT22;10367;52.202;5.996;2024-03-08T06:02:53;0.30;99.90
20416;DHT22;10367;52.202;5.996;2024-03-08T06:05:23;0.30;99.90
20416;DHT22;10367;52.202;5.996;2024-03-08T06:07:52;0.30;99.90
20416;DHT22;10367;52.202;5.996;2024-03-08T06:10:21;0.20;99.90
20416;DHT22;10367;52.202;5.996;2024-03-08T06:12:50;0.20;99.90
20416;DHT22;10367;52.202;5.996;2024-03-08T06:15:21;0.10;99.90
20416;DHT22;10367;52.202;5.996;2024-03-08T06:17:50;0.10;99.90
20416;DHT22;10367;52.202;5.996;2024-03-08T06:20:20;0.10;99.90
20416;DHT22;10367;52.202;5.996;2024-03-08T06:22:53;0.10;99.90
20416;DHT22;10367;52.202;5.996;2024-03-08T06:25:22;0.20;99.90
20416;DHT22;10367;52.202;5.996;2024-03-08T06:27:51;0.20;99.90
20416;DHT22;10367;52.202;5.996;2024-03-08T06:30:22;0.30;99.90
20416;DHT22;10367;52.202;5.996;2024-03-08T06:32:51;0.40;99.90
20416;DHT22;10367;52.202;5.996;2024-03-08T06:35:20;0.40;99.90
20416;DHT22;10367;52.202;5.996;2024-03-08T06:37:49;0.50;99.90
20416;DHT22;10367;52.202;5.996;2024-03-08T06:40:18;0.60;99.90
20416;DHT22;10367;52.202;5.996;2024-03-08T06:42:46;0.70;99.90
20416;DHT22;10367;52.202;5.996;2024-03-08T06:45:15;0.70;99.90
20416;DHT22;10367;52.202;5.996;2024-03-08T06:47:49;0.70;99.90
20416;DHT22;10367;52.202;5.996;2024-03-08T06:50:18;0.80;99.90
20416;DHT22;10367;52.202;5.996;2024-03-08T06:52:47;0.90;99.90
20416;DHT22;10367;52.202;5.996;2024-03-08T06:55:20;0.90;99.90
20416;DHT22;10367;52.202;5.996;2024-03-08T06:57:49;0.90;99.90
20416;DHT22;10367;52.202;5.996;2024-03-08T07:00:19;0.90;99.90
20416;DHT22;10367;52.202;5.996;2024-03-08T07:02:50;1.00;99.90
20416;DHT22;10367;52.202;5.996;2024-03-08T07:05:21;1.10;99.90
20416;DHT22;10367;52.202;5.996;2024-03-08T07:07:50;1.20;99.90
20416;DHT22;10367;52.202;5.996;2024-03-08T07:10:20;1.20;99.90
20416;DHT22;10367;52.202;5.996;2024-03-08T07:12:51;1.20;99.90
20416;DHT22;10367;52.202;5.996;2024-03-08T07:15:20;1.30;99.90
20416;DHT22;10367;52.202;5.996;2024-03-08T07:17:52;1.40;99.90
20416;DHT22;10367;52.202;5.996;2024-03-08T07:20:21;1.50;99.90
20416;DHT22;10367;52.202;5.996;2024-03-08T07:22:50;1.50;99.90
20416;DHT22;10367;52.202;5.996;2024-03-08T07:25:19;1.60;99.90
20416;DHT22;10367;52.202;5.996;2024-03-08T07:27:51;1.60;99.90
20416;DHT22;10367;52.202;5.996;2024-03-08T07:30:21;1.70;99.90
20416;DHT22;10367;52.202;5.996;2024-03-08T07:33:09;1.70;99.90
20416;DHT22;10367;52.202;5.996;2024-03-08T07:35:40;1.80;99.90
20416;DHT22;10367;52.202;5.996;2024-03-08T07:38:12;1.90;99.90
20416;DHT22;10367;52.202;5.996;2024-03-08T07:40:42;2.00;99.90
20416;DHT22;10367;52.202;5.996;2024-03-08T07:43:13;2.00;99.90
20416;DHT22;10367;52.202;5.996;2024-03-08T07:45:42;2.10;99.90
20416;DHT22;10367;52.202;5.996;2024-03-08T07:48:12;2.20;99.90
20416;DHT22;10367;52.202;5.996;2024-03-08T07:50:41;2.20;99.90
20416;DHT22;10367;52.202;5.996;2024-03-08T07:53:10;2.30;99.90
20416;DHT22;10367;52.202;5.996;2024-03-08T07:55:39;2.40;99.90
20416;DHT22;10367;52.202;5.996;2024-03-08T07:58:10;2.50;99.90
20416;DHT22;10367;52.202;5.996;2024-03-08T08:00:40;2.50;99.90
20416;DHT22;10367;52.202;5.996;2024-03-08T08:03:12;2.50;99.90
20416;DHT22;10367;52.202;5.996;2024-03-08T08:05:41;2.60;99.90
20416;DHT22;10367;52.202;5.996;2024-03-08T08:08:10;2.70;99.90
20416;DHT22;10367;52.202;5.996;2024-03-08T08:10:39;2.80;99.90
20416;DHT22;10367;52.202;5.996;2024-03-08T08:13:08;2.90;99.90
20416;DHT22;10367;52.202;5.996;2024-03-08T08:15:37;3.00;99.90
20416;DHT22;10367;52.202;5.996;2024-03-08T08:18:06;3.10;99.90
20416;DHT22;10367;52.202;5.996;2024-03-08T08:20:38;3.10;99.90
20416;DHT22;10367;52.202;5.996;2024-03-08T08:23:07;3.20;99.90
20416;DHT22;10367;52.202;5.996;2024-03-08T08:25:37;3.30;99.90
20416;DHT22;10367;52.202;5.996;2024-03-08T08:28:06;3.30;99.90
20416;DHT22;10367;52.202;5.996;2024-03-08T08:30:35;3.40;99.90
20416;DHT22;10367;52.202;5.996;2024-03-08T08:33:05;3.50;99.90
20416;DHT22;10367;52.202;5.996;2024-03-08T08:35:37;3.60;99.90
20416;DHT22;10367;52.202;5.996;2024-03-08T08:38:06;3.70;99.90
20416;DHT22;10367;52.202;5.996;2024-03-08T08:40:36;3.70;99.90
20416;DHT22;10367;52.202;5.996;2024-03-08T08:43:05;3.80;99.90
20416;DHT22;10367;52.202;5.996;2024-03-08T08:45:34;3.90;99.90
20416;DHT22;10367;52.202;5.996;2024-03-08T08:48:04;4.00;99.90
20416;DHT22;10367;52.202;5.996;2024-03-08T08:50:34;4.00;99.90
20416;DHT22;10367;52.202;5.996;2024-03-08T08:53:04;4.00;99.90
20416;DHT22;10367;52.202;5.996;2024-03-08T08:55:35;4.00;99.90
20416;DHT22;10367;52.202;5.996;2024-03-08T08:58:04;4.10;99.90
20416;DHT22;10367;52.202;5.996;2024-03-08T09:00:34;4.10;99.90
20416;DHT22;10367;52.202;5.996;2024-03-08T09:03:03;4.30;99.90
20416;DHT22;10367;52.202;5.996;2024-03-08T09:05:34;4.40;99.90
20416;DHT22;10367;52.202;5.996;2024-03-08T09:08:07;4.40;99.90
20416;DHT22;10367;52.202;5.996;2024-03-08T09:10:37;4.50;99.90
20416;DHT22;10367;52.202;5.996;2024-03-08T09:13:07;4.60;99.90
20416;DHT22;10367;52.202;5.996;2024-03-08T09:15:44;4.60;99.90
20416;DHT22;10367;52.202;5.996;2024-03-08T09:18:14;4.70;99.90
20416;DHT22;10367;52.202;5.996;2024-03-08T09:20:46;4.90;99.90
20416;DHT22;10367;52.202;5.996;2024-03-08T09:23:19;5.00;99.90
20416;DHT22;10367;52.202;5.996;2024-03-08T09:25:48;5.10;99.90
20416;DHT22;10367;52.202;5.996;2024-03-08T09:28:17;5.20;99.90
20416;DHT22;10367;52.202;5.996;2024-03-08T09:30:47;5.30;99.90
20416;DHT22;10367;52.202;5.996;2024-03-08T09:33:26;5.40;99.90
20416;DHT22;10367;52.202;5.996;2024-03-08T09:35:56;5.50;99.90
20416;DHT22;10367;52.202;5.996;2024-03-08T09:38:31;5.70;99.90
20416;DHT22;10367;52.202;5.996;2024-03-08T09:41:00;5.70;99.90
20416;DHT22;10367;52.202;5.996;2024-03-08T09:43:31;5.80;99.90
20416;DHT22;10367;52.202;5.996;2024-03-08T09:46:00;5.90;99.90
20416;DHT22;10367;52.202;5.996;2024-03-08T09:48:29;6.00;99.90
20416;DHT22;10367;52.202;5.996;2024-03-08T09:50:58;6.10;99.90
20416;DHT22;10367;52.202;5.996;2024-03-08T09:53:26;6.20;99.90
20416;DHT22;10367;52.202;5.996;2024-03-08T09:55:57;6.30;99.90
20416;DHT22;10367;52.202;5.996;2024-03-08T09:58:26;6.30;99.90
20416;DHT22;10367;52.202;5.996;2024-03-08T10:01:18;6.40;99.90
20416;DHT22;10367;52.202;5.996;2024-03-08T10:03:47;6.50;99.90
20416;DHT22;10367;52.202;5.996;2024-03-08T10:06:22;6.60;99.90
20416;DHT22;10367;52.202;5.996;2024-03-08T10:08:52;6.70;99.90
20416;DHT22;10367;52.202;5.996;2024-03-08T10:11:22;6.80;99.90
20416;DHT22;10367;52.202;5.996;2024-03-08T10:13:51;7.00;99.90
20416;DHT22;10367;52.202;5.996;2024-03-08T10:16:20;7.10;99.90
20416;DHT22;10367;52.202;5.996;2024-03-08T10:18:51;7.20;99.90
20416;DHT22;10367;52.202;5.996;2024-03-08T10:21:21;7.30;99.90
20416;DHT22;10367;52.202;5.996;2024-03-08T10:23:50;7.30;99.90
20416;DHT22;10367;52.202;5.996;2024-03-08T10:26:19;7.30;99.90
20416;DHT22;10367;52.202;5.996;2024-03-08T10:28:51;7.50;99.90
20416;DHT22;10367;52.202;5.996;2024-03-08T10:31:20;7.60;99.90
20416;DHT22;10367;52.202;5.996;2024-03-08T10:33:49;7.80;99.90
20416;DHT22;10367;52.202;5.996;2024-03-08T10:36:18;7.80;99.90
20416;DHT22;10367;52.202;5.996;2024-03-08T10:38:51;7.90;99.90
20416;DHT22;10367;52.202;5.996;2024-03-08T10:41:22;8.00;99.90
20416;DHT22;10367;52.202;5.996;2024-03-08T10:44:14;8.10;99.90
20416;DHT22;10367;52.202;5.996;2024-03-08T10:46:57;8.10;99.90
20416;DHT22;10367;52.202;5.996;2024-03-08T10:49:31;8.10;99.90
20416;DHT22;10367;52.202;5.996;2024-03-08T10:52:03;8.20;99.90
20416;DHT22;10367;52.202;5.996;2024-03-08T10:54:34;8.40;99.90
20416;DHT22;10367;52.202;5.996;2024-03-08T10:57:12;8.50;99.90
20416;DHT22;10367;52.202;5.996;2024-03-08T10:59:44;8.60;99.90
20416;DHT22;10367;52.202;5.996;2024-03-08T11:02:14;8.70;99.90
20416;DHT22;10367;52.202;5.996;2024-03-08T11:04:47;8.70;99.90
20416;DHT22;10367;52.202;5.996;2024-03-08T11:07:17;8.90;99.90
20416;DHT22;10367;52.202;5.996;2024-03-08T11:09:48;9.00;99.90
20416;DHT22;10367;52.202;5.996;2024-03-08T11:12:22;9.00;99.90
20416;DHT22;10367;52.202;5.996;2024-03-08T11:14:54;9.10;99.90
20416;DHT22;10367;52.202;5.996;2024-03-08T11:17:41;9.10;99.90
20416;DHT22;10367;52.202;5.996;2024-03-08T11:20:14;9.20;99.90
20416;DHT22;10367;52.202;5.996;2024-03-08T11:22:50;9.40;99.90
20416;DHT22;10367;52.202;5.996;2024-03-08T11:25:33;9.40;99.90
20416;DHT22;10367;52.202;5.996;2024-03-08T11:28:14;9.50;99.90
20416;DHT22;10367;52.202;5.996;2024-03-08T11:31:24;9.40;99.90
20416;DHT22;10367;52.202;5.996;2024-03-08T11:33:54;9.60;99.90
20416;DHT22;10367;52.202;5.996;2024-03-08T11:36:25;9.80;99.90
20416;DHT22;10367;52.202;5.996;2024-03-08T11:38:54;10.00;99.90
20416;DHT22;10367;52.202;5.996;2024-03-08T11:41:26;9.80;99.90
20416;DHT22;10367;52.202;5.996;2024-03-08T11:44:03;9.70;99.90
20416;DHT22;10367;52.202;5.996;2024-03-08T11:46:35;9.90;99.90
20416;DHT22;10367;52.202;5.996;2024-03-08T11:49:05;10.00;99.90
20416;DHT22;10367;52.202;5.996;2024-03-08T11:51:34;9.80;99.90
20416;DHT22;10367;52.202;5.996;2024-03-08T11:54:04;10.00;99.90
20416;DHT22;10367;52.202;5.996;2024-03-08T11:56:33;10.20;99.90
20416;DHT22;10367;52.202;5.996;2024-03-08T11:59:03;10.20;99.90
20416;DHT22;10367;52.202;5.996;2024-03-08T12:01:32;10.20;99.90
20416;DHT22;10367;52.202;5.996;2024-03-08T12:04:03;10.20;99.90
20416;DHT22;10367;52.202;5.996;2024-03-08T12:06:38;10.10;99.90
20416;DHT22;10367;52.202;5.996;2024-03-08T12:09:09;10.30;99.90
20416;DHT22;10367;52.202;5.996;2024-03-08T12:11:38;10.50;99.90
20416;DHT22;10367;52.202;5.996;2024-03-08T12:14:07;10.70;99.90
20416;DHT22;10367;52.202;5.996;2024-03-08T12:16:37;10.80;99.90
20416;DHT22;10367;52.202;5.996;2024-03-08T12:19:08;10.90;99.90
20416;DHT22;10367;52.202;5.996;2024-03-08T12:21:38;11.00;99.90
20416;DHT22;10367;52.202;5.996;2024-03-08T12:24:15;11.10;99.90
20416;DHT22;10367;52.202;5.996;2024-03-08T12:26:46;11.20;99.90
20416;DHT22;10367;52.202;5.996;2024-03-08T12:29:18;11.30;99.90
20416;DHT22;10367;52.202;5.996;2024-03-08T12:31:48;11.10;99.90
20416;DHT22;10367;52.202;5.996;2024-03-08T12:34:20;11.10;99.90
20416;DHT22;10367;52.202;5.996;2024-03-08T12:36:50;11.20;99.90
20416;DHT22;10367;52.202;5.996;2024-03-08T12:39:22;11.00;99.90
20416;DHT22;10367;52.202;5.996;2024-03-08T12:41:55;11.00;99.90
20416;DHT22;10367;52.202;5.996;2024-03-08T12:44:25;11.00;99.90
20416;DHT22;10367;52.202;5.996;2024-03-08T12:46:55;11.20;99.90
20416;DHT22;10367;52.202;5.996;2024-03-08T12:49:28;11.00;99.90
20416;DHT22;10367;52.202;5.996;2024-03-08T12:51:58;11.00;99.90
20416;DHT22;10367;52.202;5.996;2024-03-08T12:54:28;11.00;99.90
20416;DHT22;10367;52.202;5.996;2024-03-08T12:56:58;11.10;99.90
20416;DHT22;10367;52.202;5.996;2024-03-08T12:59:27;11.00;99.90
20416;DHT22;10367;52.202;5.996;2024-03-08T13:01:56;11.00;99.90
20416;DHT22;10367;52.202;5.996;2024-03-08T13:04:28;11.00;99.90
20416;DHT22;10367;52.202;5.996;2024-03-08T13:06:59;11.30;99.90
20416;DHT22;10367;52.202;5.996;2024-03-08T13:09:29;11.50;99.90
20416;DHT22;10367;52.202;5.996;2024-03-08T13:11:59;11.70;99.90
20416;DHT22;10367;52.202;5.996;2024-03-08T13:14:28;11.70;99.90
20416;DHT22;10367;52.202;5.996;2024-03-08T13:16:59;11.70;99.90
20416;DHT22;10367;52.202;5.996;2024-03-08T13:19:29;11.70;99.90
20416;DHT22;10367;52.202;5.996;2024-03-08T13:21:58;11.80;99.90
20416;DHT22;10367;52.202;5.996;2024-03-08T13:24:27;11.90;99.90
20416;DHT22;10367;52.202;5.996;2024-03-08T13:26:56;11.70;99.90
20416;DHT22;10367;52.202;5.996;2024-03-08T13:29:26;11.30;99.90
20416;DHT22;10367;52.202;5.996;2024-03-08T13:31:55;11.40;99.90
20416;DHT22;10367;52.202;5.996;2024-03-08T13:34:29;11.70;99.90
20416;DHT22;10367;52.202;5.996;2024-03-08T13:37:02;11.70;99.90
20416;DHT22;10367;52.202;5.996;2024-03-08T13:39:33;11.70;99.90
20416;DHT22;10367;52.202;5.996;2024-03-08T13:42:08;11.50;99.90
20416;DHT22;10367;52.202;5.996;2024-03-08T13:44:43;11.60;99.90
20416;DHT22;10367;52.202;5.996;2024-03-08T13:47:13;11.50;99.90
20416;DHT22;10367;52.202;5.996;2024-03-08T13:49:44;11.40;99.90
20416;DHT22;10367;52.202;5.996;2024-03-08T13:52:13;11.40;99.90
20416;DHT22;10367;52.202;5.996;2024-03-08T13:54:42;11.50;99.90
20416;DHT22;10367;52.202;5.996;2024-03-08T13:57:11;11.80;99.90
20416;DHT22;10367;52.202;5.996;2024-03-08T13:59:40;11.80;99.90
20416;DHT22;10367;52.202;5.996;2024-03-08T14:02:08;12.00;99.90
20416;DHT22;10367;52.202;5.996;2024-03-08T14:04:41;12.10;99.90
20416;DHT22;10367;52.202;5.996;2024-03-08T14:07:12;12.00;99.90
20416;DHT22;10367;52.202;5.996;2024-03-08T14:09:40;12.00;99.90
20416;DHT22;10367;52.202;5.996;2024-03-08T14:12:10;12.20;99.90
20416;DHT22;10367;52.202;5.996;2024-03-08T14:14:41;12.30;99.90
20416;DHT22;10367;52.202;5.996;2024-03-08T14:17:12;12.30;99.90
20416;DHT22;10367;52.202;5.996;2024-03-08T14:19:44;12.40;99.90
20416;DHT22;10367;52.202;5.996;2024-03-08T14:22:15;12.40;99.90
20416;DHT22;10367;52.202;5.996;2024-03-08T14:24:44;12.40;99.90
20416;DHT22;10367;52.202;5.996;2024-03-08T14:27:13;12.30;99.90
20416;DHT22;10367;52.202;5.996;2024-03-08T14:29:46;12.30;99.90
20416;DHT22;10367;52.202;5.996;2024-03-08T14:32:15;12.40;99.90
20416;DHT22;10367;52.202;5.996;2024-03-08T14:34:47;12.30;99.90
20416;DHT22;10367;52.202;5.996;2024-03-08T14:37:18;12.10;99.90
20416;DHT22;10367;52.202;5.996;2024-03-08T14:39:50;12.00;99.90
20416;DHT22;10367;52.202;5.996;2024-03-08T14:42:19;12.00;99.90
20416;DHT22;10367;52.202;5.996;2024-03-08T14:44:49;11.90;99.90
20416;DHT22;10367;52.202;5.996;2024-03-08T14:47:19;11.80;99.90
20416;DHT22;10367;52.202;5.996;2024-03-08T14:49:49;11.80;99.90
20416;DHT22;10367;52.202;5.996;2024-03-08T14:52:20;11.80;99.90
20416;DHT22;10367;52.202;5.996;2024-03-08T14:54:58;11.70;99.90
20416;DHT22;10367;52.202;5.996;2024-03-08T14:57:26;11.70;99.90
20416;DHT22;10367;52.202;5.996;2024-03-08T14:59:56;11.60;99.90
20416;DHT22;10367;52.202;5.996;2024-03-08T15:02:30;11.70;99.90
20416;DHT22;10367;52.202;5.996;2024-03-08T15:04:59;11.80;99.90
20416;DHT22;10367;52.202;5.996;2024-03-08T15:07:30;11.80;99.90
20416;DHT22;10367;52.202;5.996;2024-03-08T15:09:59;11.90;99.90
20416;DHT22;10367;52.202;5.996;2024-03-08T15:12:28;12.10;99.90
20416;DHT22;10367;52.202;5.996;2024-03-08T15:14:57;12.00;99.90
20416;DHT22;10367;52.202;5.996;2024-03-08T15:17:26;11.70;99.90
20416;DHT22;10367;52.202;5.996;2024-03-08T15:19:55;11.60;99.90
20416;DHT22;10367;52.202;5.996;2024-03-08T15:22:24;11.60;99.90
20416;DHT22;10367;52.202;5.996;2024-03-08T15:24:54;11.60;99.90
20416;DHT22;10367;52.202;5.996;2024-03-08T15:27:25;11.60;99.90
20416;DHT22;10367;52.202;5.996;2024-03-08T15:29:55;11.60;99.90
20416;DHT22;10367;52.202;5.996;2024-03-08T15:32:26;11.60;99.90
20416;DHT22;10367;52.202;5.996;2024-03-08T15:34:56;11.40;99.90
20416;DHT22;10367;52.202;5.996;2024-03-08T15:37:25;11.10;99.90
20416;DHT22;10367;52.202;5.996;2024-03-08T15:39:57;11.10;99.90
20416;DHT22;10367;52.202;5.996;2024-03-08T15:42:25;11.00;99.90
20416;DHT22;10367;52.202;5.996;2024-03-08T15:44:54;11.00;99.90
20416;DHT22;10367;52.202;5.996;2024-03-08T15:47:23;11.00;99.90
20416;DHT22;10367;52.202;5.996;2024-03-08T15:49:53;10.90;99.90
20416;DHT22;10367;52.202;5.996;2024-03-08T15:52:22;10.90;99.90
20416;DHT22;10367;52.202;5.996;2024-03-08T15:54:51;10.90;99.90
20416;DHT22;10367;52.202;5.996;2024-03-08T15:57:22;10.70;99.90
20416;DHT22;10367;52.202;5.996;2024-03-08T15:59:51;10.60;99.90
20416;DHT22;10367;52.202;5.996;2024-03-08T16:02:20;10.60;99.90